Curaca, Brazil
Current Conditions -  °F | °C
As of 1:00 PM on Thursday 27 Nov 2014 (Local Time) from SBPL Reporting Station
Clear Clear  
Wind Chill: 93°   Ceiling: Unl
Heat Index: 94°   Visibility: 6mi
Dew Point: 63°   Wind: 12mph
Humidity: 36%   Direction: 170°S
Pressure: 29.88"   Gusts: NA
Location:  8.99°S, 39.91°W
Report Text: SBPL 271600Z 17010KT CAVOK 34/17 Q1012
Loading
Personal Weather Stations






























Interactive Weather Map New forecast layout! Learn more

10-Day Weather Forecast

Advertisements
Track Severe Weather on mobile